ADDS METAR Data INFO
IDs: Format: Raw Decoded Include TAF

Data at: 0108 UTC 21 Oct 2017

KFIN 210055Z AUTO 07006KT 10SM CLR 24/18 A3013 RMK AO2 T02380175
KFIN 210035Z AUTO 08006KT 10SM CLR 24/17 A3013 RMK AO2 T02380173
KFIN 210015Z AUTO 07005KT 10SM CLR 24/18 A3013 RMK AO2 T02360175
KFIN 202355Z AUTO 07005KT 10SM CLR 24/17 A3013 RMK AO2 T02390174 10285 20239
KFIN 202250Z 07008KT 7SM SKC 24/17 A3012
KFIN 202150Z 08009KT 7SM SKC 27/17 A3012
KFIN 202050Z 06012G20KT 7SM SCT044 27/17 A3011
KFIN 201950Z 08011G16KT 7SM FEW050 28/17 A3012
KFIN 201850Z 06013KT 7SM SKC 28/17 A3013
KFIN 201750Z 07013KT 7SM SCT060 28/17 A3013
KFIN 201650Z 07011G17KT 7SM BKN040 27/18 A3016
KFIN 201550Z 06012G20KT 7SM SCT055 28/18 A3017
KFIN 201450Z 06010KT 7SM SCT038 27/18 A3018
KFIN 201350Z 08010KT 7SM SKC 27/18 A3017
KFIN 201250Z 06010KT 7SM BKN042 24/18 A3014
KFIN 201150Z 06010KT 7SM BKN042 24/18 A3014
KFIN 201050Z 05005KT 7SM BKN030 24/18 A3013
KFIN 200950Z 05004KT 7SM SKC 23/18 A3012
KFIN 200935Z AUTO 04004KT 10SM CLR 23/19 A3012 RMK AO2 T02320185
KFIN 200915Z AUTO 05005KT 10SM CLR 24/19 A3012 RMK AO2 T02350185
KFIN 200855Z AUTO 06005KT 10SM CLR 24/19 A3012 RMK AO2 T02360186
KFIN 200835Z AUTO 06007KT 10SM CLR 24/19 A3012 RMK AO2 T02400186
KFIN 200815Z AUTO 07008KT 10SM SCT033 SCT046 24/19 A3011 RMK AO2 T02420185
KFIN 200755Z AUTO 07008KT 10SM BKN033 BKN046 OVC050 25/19 A3011 RMK AO2 T02450192
KFIN 200735Z AUTO 08006KT 10SM BKN033 BKN038 BKN045 24/20 A3012 RMK AO2 T02410198
KFIN 200715Z AUTO 09007KT 10SM BKN033 BKN044 BKN050 24/20 A3012 RMK AO2 T02420197
KFIN 200655Z AUTO 09005KT 10SM SCT030 SCT037 SCT044 24/21 A3013 RMK AO2 T02390205
KFIN 200635Z AUTO 09006KT 10SM SCT055 24/21 A3013 RMK AO2 T02400206
KFIN 200615Z AUTO 09007KT 10SM CLR 24/21 A3013 RMK AO2 T02370207
KFIN 200555Z AUTO 09006KT 10SM SCT026 SCT039 SCT055 23/21 A3013 RMK AO2 60004 T02310213 10239 20222 402860222
KFIN 200535Z AUTO 01005KT 10SM SCT023 SCT029 BKN039 23/22 A3013 RMK AO2 T02300218
KFIN 200515Z AUTO 02003KT 10SM SCT019 SCT029 BKN043 23/22 A3013 RMK AO2 T02290215
KFIN 200455Z AUTO 02005KT 10SM SCT019 SCT047 23/22 A3013 RMK AO2 T02300215
KFIN 200415Z AUTO 04007KT 10SM OVC019 24/22 A3014 RMK AO2 T02350215
KFIN 200355Z AUTO 02005KT 10SM BKN021 BKN028 BKN034 24/22 A3014 RMK AO2 T02350215
KFIN 200335Z AUTO 03005KT 10SM SCT021 SCT036 23/21 A3014 RMK AO2 T02310210
KFIN 200315Z AUTO 04006KT 10SM CLR 23/21 A3014 RMK AO2 T02300210
KFIN 200255Z AUTO 03007KT 10SM SCT060 SCT075 23/21 A3014 RMK AO2 P0001 60004 T02300213
KFIN 200235Z AUTO 04006KT 10SM BKN060 OVC075 23/21 A3014 RMK AO2 P0001 T02280211
KFIN 200215Z AUTO 05008KT 10SM -RA SCT015 BKN049 OVC075 23/21 A3014 RMK AO2 P0001 T02300213
KFIN 200155Z AUTO 04011G15KT 10SM SCT013 BKN019 OVC050 23/22 A3013 RMK AO2 T02330217
KFIN 200135Z AUTO 05006KT 10SM SCT012 OVC048 23/22 A3013 RMK AO2 T02310216
KFIN 200115Z AUTO 04007KT 10SM SCT012 BKN017 OVC048 22/22 A3013 RMK AO2 T02240215
KFIN 200055Z AUTO 03008KT 4SM DZ SCT011 BKN029 OVC040 22/21 A3013 RMK AO2 P0003 T02230214
KFIN 200035Z AUTO 05012KT 4SM RA SCT011 BKN016 OVC024 23/22 A3013 RMK AO2 P0001 T02300217
KFIN 200015Z AUTO 02009G14KT 10SM SCT017 SCT024 BKN049 24/21 A3012 RMK AO2 T02370211
KFIN 192355Z AUTO 04006KT 10SM SCT020 SCT047 24/20 A3012 RMK AO2 60002 T02380203 10273 20237
KFIN 192250Z 05008KT 7SM SCT018 SCT031 24/21 A3011
KFIN 192150Z 03009KT 7SM SCT019 24/22 A3010
KFIN 192050Z 04016G22KT 7SM SCT019 26/21 A3010
KFIN 191950Z 04016G22KT 7SM SCT019 26/21 A3010
KFIN 191850Z 02013G19KT 7SM BKN016 26/22 A3010
KFIN 191750Z 03009KT 7SM BKN030 28/22 A3011
KFIN 191650Z 06015G20KT 7SM SCT025 28/21 A3013
KFIN 191550Z 07015G20KT 7SM SCT030 SCT040 28/21 A3014
KFIN 191450Z 01008KT 7SM SCT060 BKN070 26/21 A3013
KFIN 191350Z 03008KT 7SM SCT029 24/21 A3013